Time;durP1;ratioP1;P1;durP2;ratioP2;P2;SDS_P1;SDS_P2;PMS_P1;PMS_P2;Temp;Humidity;BMP_temperature;BMP_pressure;BME280_temperature;BME280_humidity;BME280_pressure;Samples;Min_cycle;Max_cycle;Signal;HPM_P1;HPM_P2
2021/08/08 00:02:22;;;;;;;2.47;0.57;;;21.90;62.10;;;;;;5053875;28;20043;-59
2021/08/08 00:04:48;;;;;;;1.20;0.50;;;22.00;62.00;;;;;;5056709;28;20028;-59
2021/08/08 00:07:14;;;;;;;0.88;0.50;;;21.90;62.00;;;;;;5056812;28;20381;-59
2021/08/08 00:09:40;;;;;;;1.02;0.55;;;22.00;62.00;;;;;;5057135;28;20530;-59
2021/08/08 00:12:06;;;;;;;1.08;0.43;;;22.00;62.00;;;;;;5055840;28;20025;-59
2021/08/08 00:14:31;;;;;;;1.17;0.63;;;21.90;62.00;;;;;;5054724;28;20032;-59
2021/08/08 00:16:57;;;;;;;0.80;0.50;;;21.90;62.00;;;;;;5054818;28;20048;-59
2021/08/08 00:19:22;;;;;;;0.77;0.50;;;21.90;62.00;;;;;;5053713;28;20082;-59
2021/08/08 00:21:48;;;;;;;1.80;0.68;;;21.90;62.00;;;;;;5053820;28;20397;-59
2021/08/08 00:24:13;;;;;;;0.52;0.30;;;21.90;62.00;;;;;;5054138;28;20469;-59
2021/08/08 00:26:39;;;;;;;2.10;0.60;;;21.90;62.00;;;;;;5054207;28;20029;-59
2021/08/08 00:29:04;;;;;;;0.93;0.45;;;21.90;62.00;;;;;;5054541;28;20029;-59
2021/08/08 00:31:30;;;;;;;2.38;0.70;;;21.90;62.00;;;;;;5054696;28;20017;-59
2021/08/08 00:33:56;;;;;;;0.98;0.60;;;21.80;62.10;;;;;;5054365;28;20484;-59
2021/08/08 00:36:22;;;;;;;0.73;0.50;;;21.80;62.00;;;;;;5055886;28;20078;-59
2021/08/08 00:38:48;;;;;;;1.05;0.40;;;21.80;62.00;;;;;;5054785;28;20032;-59
2021/08/08 00:41:13;;;;;;;1.02;0.70;;;21.90;62.10;;;;;;5056430;28;20464;-59
2021/08/08 00:43:39;;;;;;;1.02;0.65;;;21.80;62.00;;;;;;5055164;28;20056;-59
2021/08/08 00:46:05;;;;;;;1.50;0.70;;;21.80;62.00;;;;;;5054510;28;20119;-59
2021/08/08 00:48:31;;;;;;;1.65;0.70;;;21.80;62.00;;;;;;5053134;28;20017;-59
2021/08/08 00:50:58;;;;;;;1.08;0.60;;;21.80;62.10;;;;;;5053598;28;20349;-59
2021/08/08 00:53:24;;;;;;;1.23;0.57;;;21.80;62.10;;;;;;5053430;28;20021;-59
2021/08/08 00:55:49;;;;;;;0.88;0.50;;;21.80;62.10;;;;;;5052937;28;20487;-59
2021/08/08 00:58:15;;;;;;;4.10;1.75;;;21.80;62.10;;;;;;5053252;28;20028;-59
2021/08/08 01:00:41;;;;;;;1.98;0.90;;;21.80;62.10;;;;;;5053479;28;20104;-59
2021/08/08 01:03:12;;;;;;;1.40;0.55;;;21.80;62.20;;;;;;5054331;28;20040;-59
2021/08/08 01:05:44;;;;;;;1.88;0.63;;;21.70;62.10;;;;;;5052761;28;20354;-59
2021/08/08 01:08:15;;;;;;;1.63;0.60;;;21.70;62.10;;;;;;5052660;28;20380;-59
2021/08/08 01:10:42;;;;;;;1.05;0.60;;;21.70;62.10;;;;;;5052892;28;20025;-59
2021/08/08 01:13:08;;;;;;;0.55;0.45;;;21.70;62.10;;;;;;5052694;28;20032;-59
2021/08/08 01:15:34;;;;;;;1.15;0.52;;;21.70;62.10;;;;;;5052598;28;20083;-59
2021/08/08 01:18:00;;;;;;;1.35;0.63;;;21.70;62.10;;;;;;5052778;28;20029;-59
2021/08/08 01:20:27;;;;;;;1.63;0.70;;;21.70;62.10;;;;;;5052881;28;20021;-60
2021/08/08 01:22:57;;;;;;;0.50;0.40;;;21.70;62.10;;;;;;5052435;28;20492;-59
2021/08/08 01:25:23;;;;;;;0.65;0.50;;;21.70;62.10;;;;;;5052872;28;20017;-60
2021/08/08 01:27:51;;;;;;;1.40;0.50;;;21.70;62.20;;;;;;5052528;28;20106;-59
2021/08/08 01:30:17;;;;;;;1.20;0.50;;;21.70;62.10;;;;;;5052441;28;20500;-59
2021/08/08 01:32:43;;;;;;;2.75;0.93;;;21.70;62.10;;;;;;5054039;28;20029;-60
2021/08/08 01:35:09;;;;;;;1.15;0.70;;;21.70;62.10;;;;;;5056250;28;20249;-59
2021/08/08 01:37:35;;;;;;;1.10;0.52;;;21.70;62.20;;;;;;5056427;28;20369;-59
2021/08/08 01:40:12;;;;;;;1.25;0.50;;;21.60;62.20;;;;;;5056353;28;20020;-59
2021/08/08 01:42:39;;;;;;;1.55;0.55;;;21.60;62.30;;;;;;5056756;28;20033;-59
2021/08/08 01:45:06;;;;;;;1.25;0.57;;;21.60;62.30;;;;;;5056456;28;20064;-59
2021/08/08 01:47:38;;;;;;;0.85;0.43;;;21.60;62.30;;;;;;5056125;28;20103;-59
2021/08/08 01:50:04;;;;;;;4.05;1.05;;;21.60;62.30;;;;;;5056168;28;20052;-60
2021/08/08 01:52:30;;;;;;;1.02;0.60;;;21.60;62.20;;;;;;5056003;28;20487;-59
2021/08/08 01:54:56;;;;;;;1.13;0.50;;;21.60;62.20;;;;;;5056116;28;20098;-59
2021/08/08 01:57:23;;;;;;;2.38;0.73;;;21.60;62.20;;;;;;5055994;28;20150;-59
2021/08/08 01:59:49;;;;;;;1.73;0.50;;;21.60;62.30;;;;;;5056199;28;20095;-59
2021/08/08 02:02:16;;;;;;;1.10;0.60;;;21.60;62.20;;;;;;5055926;28;20491;-59
2021/08/08 02:04:43;;;;;;;1.90;0.57;;;21.70;62.20;;;;;;5055931;28;20021;-59
2021/08/08 02:07:15;;;;;;;0.88;0.60;;;21.60;62.20;;;;;;5056179;28;20036;-59
2021/08/08 02:09:41;;;;;;;1.63;0.60;;;21.60;62.20;;;;;;5055727;28;20388;-59
2021/08/08 02:12:07;;;;;;;0.50;0.50;;;21.60;62.20;;;;;;5055815;28;20531;-59
2021/08/08 02:14:33;;;;;;;0.82;0.47;;;21.60;62.10;;;;;;5055733;28;20107;-59
2021/08/08 02:16:59;;;;;;;1.23;0.50;;;21.60;62.10;;;;;;5055712;28;20033;-59
2021/08/08 02:19:25;;;;;;;1.35;0.70;;;21.60;62.10;;;;;;5055697;28;20075;-59
2021/08/08 02:21:51;;;;;;;1.58;0.60;;;21.60;62.10;;;;;;5055525;28;20453;-59
2021/08/08 02:24:17;;;;;;;1.15;0.60;;;21.60;62.20;;;;;;5055839;28;20519;-59
2021/08/08 02:26:43;;;;;;;0.73;0.40;;;21.60;62.20;;;;;;5055843;28;20025;-59
2021/08/08 02:29:08;;;;;;;1.95;0.60;;;21.60;62.20;;;;;;5055490;28;20112;-59
2021/08/08 02:31:39;;;;;;;2.50;0.80;;;21.60;62.10;;;;;;5055585;28;20104;-59
2021/08/08 02:34:06;;;;;;;1.02;0.50;;;21.60;62.20;;;;;;5055201;28;20040;-59
2021/08/08 02:36:32;;;;;;;2.22;1.05;;;21.50;62.20;;;;;;5055392;28;20025;-59
2021/08/08 02:38:57;;;;;;;1.17;0.60;;;21.50;62.20;;;;;;5055241;28;20092;-59
2021/08/08 02:41:22;;;;;;;1.27;0.60;;;21.50;62.20;;;;;;5055556;28;20147;-59
2021/08/08 02:43:48;;;;;;;0.90;0.55;;;21.50;62.20;;;;;;5057129;28;20037;-59
2021/08/08 02:46:14;;;;;;;1.95;0.80;;;21.60;62.20;;;;;;5057962;28;20114;-59
2021/08/08 02:48:39;;;;;;;2.05;0.80;;;21.50;62.30;;;;;;5056681;28;20033;-59
2021/08/08 02:51:05;;;;;;;1.27;0.60;;;21.50;62.20;;;;;;5055558;28;20021;-60
2021/08/08 02:53:30;;;;;;;2.03;0.70;;;21.50;62.30;;;;;;5055155;28;20387;-59
2021/08/08 02:55:56;;;;;;;0.60;0.50;;;21.50;62.30;;;;;;5055368;28;20447;-58
2021/08/08 02:58:21;;;;;;;1.60;0.68;;;21.50;62.20;;;;;;5058923;28;20457;-59
2021/08/08 03:00:47;;;;;;;2.70;0.73;;;21.50;62.20;;;;;;5056387;28;20049;-59
2021/08/08 03:03:12;;;;;;;1.98;0.63;;;21.50;62.20;;;;;;5054788;28;20400;-59
2021/08/08 03:05:38;;;;;;;3.45;0.70;;;21.50;62.10;;;;;;5054881;28;20021;-60
2021/08/08 03:08:04;;;;;;;2.08;0.73;;;21.50;62.20;;;;;;5053403;28;20070;-59
2021/08/08 03:10:30;;;;;;;3.30;0.90;;;21.50;62.20;;;;;;5054931;28;20033;-59
2021/08/08 03:12:55;;;;;;;1.70;0.70;;;21.50;62.20;;;;;;5054929;28;20025;-59
2021/08/08 03:15:21;;;;;;;2.25;0.80;;;21.50;62.20;;;;;;5054579;28;20550;-59
2021/08/08 03:17:46;;;;;;;1.70;0.80;;;21.50;62.20;;;;;;5054580;28;20214;-59
2021/08/08 03:20:12;;;;;;;2.28;0.70;;;21.50;62.20;;;;;;5054552;28;20025;-59
2021/08/08 03:22:38;;;;;;;1.42;0.57;;;21.50;62.20;;;;;;5054333;28;20039;-59
2021/08/08 03:25:05;;;;;;;1.15;0.80;;;21.50;62.20;;;;;;5054759;28;20511;-60
2021/08/08 03:27:31;;;;;;;2.50;0.65;;;21.50;62.20;;;;;;5060934;28;20032;-59
2021/08/08 03:29:57;;;;;;;1.95;0.88;;;21.50;62.20;;;;;;5054433;28;20017;-59
2021/08/08 03:32:23;;;;;;;1.85;0.70;;;21.50;62.20;;;;;;5054475;28;20036;-59
2021/08/08 03:34:48;;;;;;;1.55;0.60;;;21.50;62.20;;;;;;5055227;28;20059;-59
2021/08/08 03:37:14;;;;;;;1.40;0.63;;;21.50;62.20;;;;;;5057781;28;20024;-59
2021/08/08 03:39:40;;;;;;;1.42;0.57;;;21.50;62.20;;;;;;5057703;28;20021;-59
2021/08/08 03:42:06;;;;;;;2.85;0.68;;;21.50;62.20;;;;;;5056652;28;20513;-59
2021/08/08 03:44:32;;;;;;;2.47;0.65;;;21.40;62.20;;;;;;5054231;28;20025;-59
2021/08/08 03:46:57;;;;;;;1.80;0.77;;;21.40;62.30;;;;;;5054034;28;20372;-59
2021/08/08 03:49:23;;;;;;;1.92;0.65;;;21.50;62.20;;;;;;5053984;28;20033;-59
2021/08/08 03:51:48;;;;;;;1.38;0.50;;;21.50;62.20;;;;;;5053879;28;20033;-59
2021/08/08 03:54:14;;;;;;;4.25;0.80;;;21.50;62.20;;;;;;5054146;28;20025;-59
2021/08/08 03:56:39;;;;;;;3.40;0.70;;;21.50;62.20;;;;;;5053564;28;20480;-59
2021/08/08 03:59:05;;;;;;;2.35;0.90;;;21.40;62.20;;;;;;5054056;28;20025;-59
2021/08/08 04:01:30;;;;;;;1.73;0.82;;;21.50;62.10;;;;;;5053962;28;20032;-59
2021/08/08 04:03:56;;;;;;;2.00;0.63;;;21.40;62.20;;;;;;5054006;28;20072;-59
2021/08/08 04:06:22;;;;;;;1.95;0.75;;;21.40;62.30;;;;;;5053568;28;20076;-59
2021/08/08 04:08:47;;;;;;;3.45;0.82;;;21.40;62.30;;;;;;5053816;28;20036;-59
2021/08/08 04:11:14;;;;;;;2.25;0.90;;;21.40;62.10;;;;;;5053771;28;20048;-59
2021/08/08 04:13:39;;;;;;;1.92;0.60;;;21.40;62.20;;;;;;5053474;28;20104;-59
2021/08/08 04:16:06;;;;;;;2.17;0.80;;;21.40;62.10;;;;;;5053553;28;20188;-59
2021/08/08 04:18:31;;;;;;;3.42;0.80;;;21.40;62.10;;;;;;5053437;28;20099;-59
2021/08/08 04:20:57;;;;;;;2.05;0.70;;;21.40;62.20;;;;;;5053344;28;20073;-59
2021/08/08 04:23:22;;;;;;;1.77;0.60;;;21.40;62.20;;;;;;5053278;28;20040;-59
2021/08/08 04:25:48;;;;;;;4.05;1.05;;;21.40;62.20;;;;;;5053599;28;20021;-59
2021/08/08 04:28:13;;;;;;;1.75;0.70;;;21.40;62.20;;;;;;5053353;28;20031;-59
2021/08/08 04:30:39;;;;;;;1.75;0.70;;;21.40;62.30;;;;;;5053483;28;20063;-59
2021/08/08 04:33:04;;;;;;;0.77;0.50;;;21.30;62.20;;;;;;5053239;28;20018;-59
2021/08/08 04:35:31;;;;;;;1.30;0.70;;;21.40;62.20;;;;;;5052905;28;20495;-59
2021/08/08 04:37:57;;;;;;;1.48;0.60;;;21.30;62.20;;;;;;5053136;28;20104;-59
2021/08/08 04:40:23;;;;;;;2.53;0.73;;;21.40;62.20;;;;;;5053404;28;20052;-59
2021/08/08 04:42:49;;;;;;;2.33;0.80;;;21.30;62.20;;;;;;5052927;28;20511;-59
2021/08/08 04:45:15;;;;;;;2.05;0.80;;;21.30;62.20;;;;;;5053061;28;20032;-59
2021/08/08 04:47:40;;;;;;;1.55;0.60;;;21.30;62.20;;;;;;5053318;28;20025;-59
2021/08/08 04:50:07;;;;;;;3.67;0.80;;;21.30;62.20;;;;;;5052867;28;20035;-59
2021/08/08 04:52:35;;;;;;;1.42;0.68;;;21.30;62.30;;;;;;5053222;28;20036;-60
2021/08/08 04:55:01;;;;;;;2.17;0.70;;;21.30;62.20;;;;;;5052805;28;20473;-59
2021/08/08 04:57:26;;;;;;;1.45;0.60;;;21.30;62.30;;;;;;5052906;28;20037;-59
2021/08/08 04:59:52;;;;;;;2.05;0.70;;;21.30;62.20;;;;;;5054661;28;20032;-59
2021/08/08 05:02:21;;;;;;;2.60;0.70;;;21.30;62.20;;;;;;5058277;28;20569;-59
2021/08/08 05:04:47;;;;;;;1.20;0.60;;;21.30;62.30;;;;;;5052592;28;20529;-59
2021/08/08 05:07:12;;;;;;;4.85;0.90;;;21.30;62.30;;;;;;5052080;28;20029;-59
2021/08/08 05:09:38;;;;;;;2.42;0.60;;;21.30;62.30;;;;;;5052890;28;20035;-59
2021/08/08 05:12:03;;;;;;;2.13;0.82;;;21.30;62.30;;;;;;5052607;28;20100;-59
2021/08/08 05:14:29;;;;;;;2.35;0.77;;;21.20;62.40;;;;;;5052919;28;20377;-59
2021/08/08 05:16:55;;;;;;;3.08;1.00;;;21.30;62.40;;;;;;5052886;28;20032;-59
2021/08/08 05:19:21;;;;;;;2.58;0.57;;;21.20;62.40;;;;;;5052590;28;20031;-59
2021/08/08 05:21:47;;;;;;;2.53;1.10;;;21.20;62.30;;;;;;5052817;28;20040;-60
2021/08/08 05:24:12;;;;;;;1.50;0.85;;;21.30;62.30;;;;;;5052638;28;20119;-59
2021/08/08 05:26:38;;;;;;;2.10;0.70;;;21.20;62.30;;;;;;5052641;28;20100;-59
2021/08/08 05:29:03;;;;;;;2.40;0.70;;;21.20;62.30;;;;;;5052658;28;20032;-59
2021/08/08 05:31:29;;;;;;;2.63;0.80;;;21.20;62.40;;;;;;5052496;28;20104;-59
2021/08/08 05:33:55;;;;;;;1.35;0.60;;;21.20;62.40;;;;;;5052490;28;20025;-61
2021/08/08 05:36:21;;;;;;;3.28;0.90;;;21.20;62.40;;;;;;5052537;28;20392;-59
2021/08/08 05:38:47;;;;;;;3.42;1.00;;;21.20;62.30;;;;;;5052476;28;20036;-59
2021/08/08 05:41:12;;;;;;;2.35;0.90;;;21.30;62.20;;;;;;5052700;28;20033;-59
2021/08/08 05:43:38;;;;;;;2.03;0.60;;;21.20;62.30;;;;;;5052558;28;20068;-59
2021/08/08 05:46:04;;;;;;;1.70;0.68;;;21.20;62.40;;;;;;5052366;28;20382;-59
2021/08/08 05:48:29;;;;;;;3.33;0.82;;;21.20;62.30;;;;;;5052215;28;20041;-59
2021/08/08 05:50:55;;;;;;;1.85;0.70;;;21.20;62.30;;;;;;5052367;28;20096;-59
2021/08/08 05:53:20;;;;;;;3.22;0.73;;;21.30;62.20;;;;;;5052307;28;20021;-59
2021/08/08 05:55:46;;;;;;;2.83;0.90;;;21.20;62.30;;;;;;5052332;28;20033;-59
2021/08/08 05:58:13;;;;;;;3.53;0.80;;;21.20;62.20;;;;;;5052592;28;20034;-59
2021/08/08 06:00:39;;;;;;;2.20;0.82;;;21.20;62.30;;;;;;5052443;28;20028;-59
2021/08/08 06:03:11;;;;;;;3.28;1.05;;;21.20;62.30;;;;;;5052250;28;20029;-59
2021/08/08 06:05:37;;;;;;;1.88;0.70;;;21.20;62.30;;;;;;5052383;28;20464;-59
2021/08/08 06:08:04;;;;;;;2.97;0.80;;;21.20;62.20;;;;;;5052417;28;20033;-59
2021/08/08 06:10:30;;;;;;;2.70;0.77;;;21.20;62.20;;;;;;5052292;28;20060;-58
2021/08/08 06:12:56;;;;;;;3.33;1.00;;;21.20;62.30;;;;;;5052155;28;20068;-59
2021/08/08 06:15:21;;;;;;;2.65;0.70;;;21.20;62.20;;;;;;5052078;28;20025;-60
2021/08/08 06:17:47;;;;;;;2.55;0.80;;;21.30;62.20;;;;;;5052096;28;20021;-59
2021/08/08 06:20:13;;;;;;;1.58;0.73;;;21.20;62.10;;;;;;5055604;28;20452;-58
2021/08/08 06:22:38;;;;;;;3.28;0.93;;;21.20;62.10;;;;;;5055874;28;20040;-59
2021/08/08 06:25:04;;;;;;;2.58;0.90;;;21.30;62.00;;;;;;5060713;28;20112;-59
2021/08/08 06:27:30;;;;;;;4.20;1.08;;;21.20;62.10;;;;;;5055844;28;20033;-59
2021/08/08 06:29:55;;;;;;;3.55;0.90;;;21.30;62.00;;;;;;5055407;28;20510;-59
2021/08/08 06:32:21;;;;;;;2.33;0.90;;;21.30;62.00;;;;;;5055325;28;20032;-59
2021/08/08 06:34:46;;;;;;;2.67;1.02;;;21.20;62.10;;;;;;5055321;28;20049;-59
2021/08/08 06:37:12;;;;;;;3.03;0.90;;;21.20;62.20;;;;;;5055466;28;20380;-59
2021/08/08 06:39:37;;;;;;;3.35;0.77;;;21.20;62.10;;;;;;5055210;28;20046;-59
2021/08/08 06:42:03;;;;;;;2.83;0.90;;;21.20;62.10;;;;;;5055405;28;20104;-59
2021/08/08 06:44:29;;;;;;;3.35;0.98;;;21.20;62.20;;;;;;5055343;28;20494;-59
2021/08/08 06:46:55;;;;;;;3.28;0.95;;;21.20;62.20;;;;;;5055067;28;20021;-60
2021/08/08 06:49:21;;;;;;;3.35;0.90;;;21.20;62.20;;;;;;5055121;28;20021;-60
2021/08/08 06:51:47;;;;;;;2.58;0.77;;;21.20;62.20;;;;;;5054957;28;20623;-59
2021/08/08 06:54:13;;;;;;;2.17;0.77;;;21.20;62.30;;;;;;5055027;28;20066;-59
2021/08/08 06:56:39;;;;;;;3.60;0.75;;;21.20;62.20;;;;;;5055004;28;20033;-59
2021/08/08 06:59:05;;;;;;;4.35;0.90;;;21.20;62.20;;;;;;5055159;28;20021;-59
2021/08/08 07:01:30;;;;;;;2.10;0.88;;;21.20;62.10;;;;;;5054648;28;20031;-59
2021/08/08 07:03:56;;;;;;;3.05;1.10;;;21.20;62.20;;;;;;5054836;28;20056;-59
2021/08/08 07:06:21;;;;;;;1.95;0.70;;;21.20;62.20;;;;;;5054842;28;20074;-60
2021/08/08 07:08:47;;;;;;;2.53;0.80;;;21.20;62.20;;;;;;5054731;28;20524;-59
2021/08/08 07:11:12;;;;;;;2.67;0.90;;;21.20;62.20;;;;;;5054721;28;20029;-59
2021/08/08 07:13:39;;;;;;;2.03;0.80;;;21.20;62.10;;;;;;5054693;28;20035;-59
2021/08/08 07:16:06;;;;;;;2.17;0.70;;;21.20;62.20;;;;;;5060911;28;20032;-60
2021/08/08 07:18:31;;;;;;;3.25;0.73;;;21.20;62.20;;;;;;5054726;28;20025;-59
2021/08/08 07:20:57;;;;;;;2.22;0.68;;;21.20;62.10;;;;;;5054578;28;20389;-59
2021/08/08 07:23:22;;;;;;;1.70;0.65;;;21.20;62.10;;;;;;5054319;28;20408;-59
2021/08/08 07:25:48;;;;;;;1.63;0.70;;;21.20;62.10;;;;;;5054662;28;20025;-59
2021/08/08 07:28:13;;;;;;;2.65;1.00;;;21.20;62.10;;;;;;5054673;28;20020;-59
2021/08/08 07:30:40;;;;;;;3.38;0.90;;;21.20;62.10;;;;;;5053890;28;20575;-59
2021/08/08 07:33:06;;;;;;;1.90;0.88;;;21.20;62.00;;;;;;5054316;28;20457;-59
2021/08/08 07:35:31;;;;;;;3.53;0.80;;;21.20;62.10;;;;;;5054169;28;20060;-59
2021/08/08 07:37:57;;;;;;;4.53;0.85;;;21.20;62.10;;;;;;5054370;28;20438;-59
2021/08/08 07:40:22;;;;;;;2.72;0.93;;;21.20;62.00;;;;;;5054312;28;20021;-59
2021/08/08 07:42:49;;;;;;;3.05;0.90;;;21.20;62.00;;;;;;5052692;28;20107;-59
2021/08/08 07:45:16;;;;;;;3.20;1.10;;;21.20;62.00;;;;;;5053907;28;20049;-59
2021/08/08 07:47:42;;;;;;;3.65;1.00;;;21.20;62.00;;;;;;5054172;28;20108;-59
2021/08/08 07:50:08;;;;;;;2.70;0.90;;;21.30;61.90;;;;;;5053897;28;20465;-59
2021/08/08 07:52:36;;;;;;;2.85;0.75;;;21.20;62.00;;;;;;5054057;28;20107;-59
2021/08/08 07:55:02;;;;;;;3.38;1.08;;;21.30;61.90;;;;;;5056318;28;20025;-59
2021/08/08 07:57:28;;;;;;;4.63;1.10;;;21.30;61.90;;;;;;5054921;28;20033;-59
2021/08/08 07:59:53;;;;;;;3.58;1.00;;;21.30;61.80;;;;;;5056134;28;20048;-59
2021/08/08 08:02:19;;;;;;;2.30;0.80;;;21.30;61.80;;;;;;5054350;28;20036;-59
2021/08/08 08:04:44;;;;;;;3.33;1.10;;;21.30;61.80;;;;;;5053828;28;20113;-59
2021/08/08 08:07:10;;;;;;;3.03;1.02;;;21.30;61.80;;;;;;5053874;28;20446;-59
2021/08/08 08:09:35;;;;;;;2.47;0.80;;;21.30;61.80;;;;;;5053833;28;20021;-59
2021/08/08 08:12:01;;;;;;;3.90;1.10;;;21.30;61.80;;;;;;5053579;28;20029;-59
2021/08/08 08:14:27;;;;;;;3.95;1.25;;;21.30;61.80;;;;;;5053602;28;20025;-59
2021/08/08 08:16:52;;;;;;;1.90;0.80;;;21.30;61.80;;;;;;5053431;28;20033;-59
2021/08/08 08:19:18;;;;;;;2.17;0.82;;;21.40;61.70;;;;;;5053361;28;20111;-59
2021/08/08 08:21:44;;;;;;;1.33;0.63;;;21.30;61.70;;;;;;5053924;28;20067;-59
2021/08/08 08:24:10;;;;;;;1.90;0.70;;;21.30;61.70;;;;;;5054108;28;20036;-60
2021/08/08 08:26:36;;;;;;;3.90;0.77;;;21.30;61.70;;;;;;5054144;28;20104;-60
2021/08/08 08:29:02;;;;;;;2.90;0.95;;;21.40;61.70;;;;;;5053090;28;20100;-59
2021/08/08 08:31:27;;;;;;;2.20;0.75;;;21.40;61.60;;;;;;5053206;28;20076;-59
2021/08/08 08:33:53;;;;;;;3.42;0.90;;;21.40;61.60;;;;;;5052987;28;20429;-59
2021/08/08 08:36:18;;;;;;;1.63;0.75;;;21.40;61.60;;;;;;5053075;28;20044;-59
2021/08/08 08:38:44;;;;;;;2.63;0.73;;;21.50;61.60;;;;;;5053175;28;20116;-59
2021/08/08 08:41:13;;;;;;;3.83;1.00;;;21.50;61.50;;;;;;5052971;28;20035;-59
2021/08/08 08:43:39;;;;;;;4.15;1.10;;;21.40;61.50;;;;;;5052264;28;20052;-59
2021/08/08 08:46:05;;;;;;;1.67;0.70;;;21.40;61.50;;;;;;5053199;28;20025;-59
2021/08/08 08:48:37;;;;;;;3.55;0.90;;;21.50;61.50;;;;;;5053033;28;20025;-59
2021/08/08 08:51:04;;;;;;;2.70;0.70;;;21.50;61.50;;;;;;5051600;28;20443;-59
2021/08/08 08:53:30;;;;;;;2.85;0.80;;;21.50;61.50;;;;;;5052901;28;20116;-59
2021/08/08 08:55:59;;;;;;;2.13;0.70;;;21.50;61.50;;;;;;5053570;28;20060;-59
2021/08/08 08:58:25;;;;;;;1.63;0.77;;;21.50;61.40;;;;;;5053065;28;20025;-59
2021/08/08 09:00:51;;;;;;;2.05;0.70;;;21.50;61.40;;;;;;5052798;28;20039;-59
2021/08/08 09:03:16;;;;;;;1.67;0.80;;;21.50;61.40;;;;;;5052704;28;20029;-59
2021/08/08 09:05:42;;;;;;;4.70;0.90;;;21.50;61.40;;;;;;5052757;28;20480;-59
2021/08/08 09:08:07;;;;;;;2.63;0.90;;;21.50;61.40;;;;;;5052686;28;20024;-59
2021/08/08 09:10:33;;;;;;;4.15;1.20;;;21.50;61.40;;;;;;5052686;28;20059;-59
2021/08/08 09:13:01;;;;;;;2.60;0.70;;;21.50;61.30;;;;;;5034887;28;20032;-59
2021/08/08 09:15:41;;;;;;;2.05;0.70;;;21.50;61.30;;;;;;5052784;28;20108;-59
2021/08/08 09:18:21;;;;;;;2.25;0.80;;;21.50;61.30;;;;;;5052772;28;20036;-59
2021/08/08 09:20:48;;;;;;;2.20;0.90;;;21.50;61.30;;;;;;5052687;28;20029;-59
2021/08/08 09:23:15;;;;;;;2.45;0.90;;;21.50;61.30;;;;;;5052335;28;20127;-59
2021/08/08 09:25:56;;;;;;;2.42;1.00;;;21.50;61.30;;;;;;5052473;28;20523;-59
2021/08/08 09:28:31;;;;;;;2.47;0.75;;;21.50;61.30;;;;;;5052506;28;20037;-59
2021/08/08 09:30:58;;;;;;;3.03;0.85;;;21.60;61.20;;;;;;5052499;28;20108;-59
2021/08/08 09:33:24;;;;;;;2.17;0.80;;;21.50;61.20;;;;;;5052364;28;20149;-59
2021/08/08 09:35:53;;;;;;;2.17;0.75;;;21.50;61.20;;;;;;5050973;28;20475;-59
2021/08/08 09:38:20;;;;;;;3.67;1.25;;;21.60;61.20;;;;;;5052407;28;20120;-59
2021/08/08 09:40:56;;;;;;;2.63;0.98;;;21.60;61.10;;;;;;5051187;28;20020;-59
2021/08/08 09:43:25;;;;;;;2.08;0.80;;;21.60;61.10;;;;;;5052564;28;20119;-58
2021/08/08 09:45:51;;;;;;;1.58;0.60;;;21.60;61.10;;;;;;5052462;28;20025;-59
2021/08/08 09:48:17;;;;;;;2.75;0.75;;;21.60;61.00;;;;;;5052635;28;20037;-59
2021/08/08 09:50:43;;;;;;;1.80;0.80;;;21.50;61.10;;;;;;5052933;28;20037;-58
2021/08/08 09:53:17;;;;;;;2.45;0.80;;;21.60;61.10;;;;;;5054495;28;20052;-59
2021/08/08 09:55:43;;;;;;;2.47;0.80;;;21.60;61.10;;;;;;5056708;28;20029;-59
2021/08/08 09:58:11;;;;;;;2.38;0.80;;;21.50;61.10;;;;;;5055992;28;20096;-58
2021/08/08 10:00:39;;;;;;;2.28;0.68;;;21.60;61.10;;;;;;5056107;28;20052;-59
2021/08/08 10:03:11;;;;;;;4.43;1.10;;;21.60;61.10;;;;;;5056111;28;20039;-59
2021/08/08 10:05:38;;;;;;;3.25;0.80;;;21.60;61.00;;;;;;5056089;28;20024;-58
2021/08/08 10:08:08;;;;;;;4.15;1.13;;;21.60;61.00;;;;;;5056140;28;20029;-58
2021/08/08 10:10:36;;;;;;;4.53;1.02;;;21.60;61.00;;;;;;5055969;28;20047;-58
2021/08/08 10:13:29;;;;;;;5.45;0.80;;;21.60;61.00;;;;;;5055658;28;20027;-58
2021/08/08 10:15:57;;;;;;;3.90;0.82;;;21.60;60.90;;;;;;5055851;28;20108;-58
2021/08/08 10:18:25;;;;;;;2.70;0.80;;;21.60;60.90;;;;;;5055911;28;20025;-58
2021/08/08 10:20:52;;;;;;;4.18;0.95;;;21.70;60.80;;;;;;5055741;28;20029;-58
2021/08/08 10:23:19;;;;;;;2.60;0.98;;;21.70;60.90;;;;;;5055664;28;20059;-60
2021/08/08 10:25:46;;;;;;;6.50;1.10;;;21.70;60.80;;;;;;5055829;28;20029;-60
2021/08/08 10:28:12;;;;;;;3.97;0.93;;;21.70;60.80;;;;;;5055672;28;20025;-60
2021/08/08 10:30:39;;;;;;;3.35;1.13;;;21.70;60.80;;;;;;5055928;28;20100;-59
2021/08/08 10:33:06;;;;;;;3.15;1.00;;;21.70;60.80;;;;;;5057198;28;20033;-60
2021/08/08 10:35:43;;;;;;;2.33;0.90;;;21.70;60.80;;;;;;5055160;28;20570;-60
2021/08/08 10:38:09;;;;;;;2.70;0.85;;;21.70;60.90;;;;;;5055290;28;20025;-60
2021/08/08 10:40:40;;;;;;;2.75;1.02;;;21.70;61.00;;;;;;5055549;28;20021;-60
2021/08/08 10:43:06;;;;;;;1.40;0.65;;;21.70;61.00;;;;;;5055439;28;20392;-60
2021/08/08 10:45:37;;;;;;;3.63;1.10;;;21.60;61.00;;;;;;5055417;28;20028;-60
2021/08/08 10:48:05;;;;;;;4.00;0.82;;;21.70;60.90;;;;;;5059323;28;20033;-58
2021/08/08 10:50:49;;;;;;;2.65;0.70;;;21.70;60.80;;;;;;5062312;28;20380;-60
2021/08/08 10:53:29;;;;;;;2.33;0.85;;;21.70;60.90;;;;;;5061778;28;20033;-60
2021/08/08 10:56:11;;;;;;;2.17;0.90;;;21.70;60.80;;;;;;5063357;28;20025;-58
2021/08/08 10:58:38;;;;;;;2.03;0.90;;;21.70;60.90;;;;;;5056048;28;20480;-60
2021/08/08 11:01:21;;;;;;;2.20;0.70;;;21.70;60.90;;;;;;5055761;28;20029;-60
2021/08/08 11:03:57;;;;;;;3.17;1.02;;;21.60;60.90;;;;;;5054746;28;20471;-60
2021/08/08 11:06:28;;;;;;;3.30;1.00;;;21.70;60.90;;;;;;5053891;28;20424;-60
2021/08/08 11:08:56;;;;;;;3.55;1.00;;;21.70;60.90;;;;;;5054870;28;20469;-60
2021/08/08 11:11:27;;;;;;;3.67;1.13;;;21.70;60.80;;;;;;5054645;28;20049;-60
2021/08/08 11:13:53;;;;;;;2.40;0.90;;;21.70;60.70;;;;;;5054966;28;20021;-60
2021/08/08 11:16:19;;;;;;;2.08;0.80;;;21.70;60.70;;;;;;5054735;28;20020;-60
2021/08/08 11:18:56;;;;;;;3.75;1.08;;;21.80;60.60;;;;;;5054772;28;20461;-60
2021/08/08 11:21:22;;;;;;;2.90;0.88;;;21.90;60.50;;;;;;5054843;28;20017;-60
2021/08/08 11:23:56;;;;;;;1.95;0.70;;;21.80;60.60;;;;;;5054387;28;20090;-60
2021/08/08 11:26:22;;;;;;;2.25;0.82;;;21.80;60.60;;;;;;5054627;28;20024;-60
2021/08/08 11:28:55;;;;;;;2.13;0.60;;;21.80;60.60;;;;;;5057053;28;20082;-60
2021/08/08 11:31:22;;;;;;;2.55;0.90;;;21.80;60.50;;;;;;5060306;28;20029;-60
2021/08/08 11:34:12;;;;;;;3.58;1.20;;;21.80;60.60;;;;;;5054680;28;20472;-60
2021/08/08 11:36:41;;;;;;;2.75;0.90;;;21.90;60.50;;;;;;5054408;28;20472;-60
2021/08/08 11:39:09;;;;;;;1.80;0.82;;;21.80;60.50;;;;;;5054258;28;20082;-60
2021/08/08 11:41:35;;;;;;;3.53;1.08;;;21.90;60.50;;;;;;5054564;28;20032;-61
2021/08/08 11:44:05;;;;;;;2.17;0.82;;;21.80;60.50;;;;;;5054134;28;20025;-60
2021/08/08 11:46:31;;;;;;;4.35;1.20;;;21.80;60.50;;;;;;5054147;28;20029;-60
2021/08/08 11:48:56;;;;;;;2.35;0.80;;;21.80;60.50;;;;;;5053984;28;20414;-60
2021/08/08 11:51:22;;;;;;;1.90;0.82;;;21.80;60.50;;;;;;5054090;28;20044;-60
2021/08/08 11:53:56;;;;;;;2.90;0.93;;;21.90;60.50;;;;;;5054205;28;20035;-60
2021/08/08 11:56:30;;;;;;;3.88;1.02;;;22.00;60.40;;;;;;5053840;28;20460;-60
2021/08/08 11:58:57;;;;;;;2.97;0.90;;;22.00;60.40;;;;;;5054102;28;20029;-61
2021/08/08 12:01:24;;;;;;;2.78;1.00;;;21.90;60.30;;;;;;5053643;28;20047;-60
2021/08/08 12:03:51;;;;;;;3.10;1.08;;;21.90;60.30;;;;;;5054008;28;20037;-61
2021/08/08 12:06:24;;;;;;;4.28;0.80;;;21.90;60.30;;;;;;5053562;28;20029;-60
2021/08/08 12:08:53;;;;;;;2.85;1.20;;;21.90;60.40;;;;;;5053708;28;20029;-60
2021/08/08 12:11:20;;;;;;;1.63;0.73;;;21.90;60.40;;;;;;5053728;28;20369;-60
2021/08/08 12:14:00;;;;;;;2.22;0.88;;;21.90;60.50;;;;;;5053704;28;20052;-60
2021/08/08 12:16:31;;;;;;;3.50;1.10;;;21.90;60.50;;;;;;5053601;28;20021;-60
2021/08/08 12:18:57;;;;;;;2.45;1.00;;;21.90;60.50;;;;;;5053398;28;20032;-60
2021/08/08 12:21:23;;;;;;;4.75;1.15;;;21.90;60.40;;;;;;5053218;28;20385;-60
2021/08/08 12:23:48;;;;;;;2.25;0.88;;;21.90;60.40;;;;;;5053494;28;20033;-60
2021/08/08 12:26:24;;;;;;;3.58;0.85;;;21.80;60.50;;;;;;5053158;28;20017;-60
2021/08/08 12:29:05;;;;;;;3.85;0.85;;;21.80;60.50;;;;;;5053196;28;20472;-60
2021/08/08 12:31:39;;;;;;;2.88;0.95;;;21.80;60.60;;;;;;5053532;28;20029;-60
2021/08/08 12:34:06;;;;;;;3.50;1.05;;;21.80;60.60;;;;;;5053107;28;20040;-60
2021/08/08 12:36:37;;;;;;;2.97;0.80;;;21.90;60.50;;;;;;5053137;28;20040;-60
2021/08/08 12:39:03;;;;;;;2.60;0.90;;;21.90;60.50;;;;;;5053036;28;20032;-60
2021/08/08 12:41:30;;;;;;;2.53;0.80;;;21.90;60.40;;;;;;5052989;28;20032;-60
2021/08/08 12:44:00;;;;;;;2.80;1.45;;;22.00;60.50;;;;;;5053265;28;20036;-60
2021/08/08 12:46:40;;;;;;;4.97;0.90;;;21.90;60.50;;;;;;5053096;28;20075;-60
2021/08/08 12:49:09;;;;;;;3.28;1.02;;;21.90;60.50;;;;;;5053180;28;20020;-59